sensor_id;sensor_type;location;lat;lon;timestamp;temperature;humidity
44111;DHT22;29774;52.664;5.074;2022-12-26T00:01:46;8.40;95.20
44111;DHT22;29774;52.664;5.074;2022-12-26T00:04:14;8.40;95.20
44111;DHT22;29774;52.664;5.074;2022-12-26T00:06:39;8.50;95.20
44111;DHT22;29774;52.664;5.074;2022-12-26T00:09:06;8.50;95.20
44111;DHT22;29774;52.664;5.074;2022-12-26T00:11:32;8.60;95.20
44111;DHT22;29774;52.664;5.074;2022-12-26T00:14:00;8.60;95.20
44111;DHT22;29774;52.664;5.074;2022-12-26T00:16:27;8.60;95.20
44111;DHT22;29774;52.664;5.074;2022-12-26T00:18:53;8.60;95.20
44111;DHT22;29774;52.664;5.074;2022-12-26T00:21:19;8.60;95.30
44111;DHT22;29774;52.664;5.074;2022-12-26T00:23:46;8.60;95.20
44111;DHT22;29774;52.664;5.074;2022-12-26T00:26:20;8.60;95.30
44111;DHT22;29774;52.664;5.074;2022-12-26T00:28:47;8.60;95.20
44111;DHT22;29774;52.664;5.074;2022-12-26T00:31:18;8.70;95.20
44111;DHT22;29774;52.664;5.074;2022-12-26T00:33:44;8.70;95.30
44111;DHT22;29774;52.664;5.074;2022-12-26T00:36:15;8.70;95.30
44111;DHT22;29774;52.664;5.074;2022-12-26T00:38:42;8.70;95.30
44111;DHT22;29774;52.664;5.074;2022-12-26T00:41:09;8.70;95.30
44111;DHT22;29774;52.664;5.074;2022-12-26T00:43:35;8.70;95.30
44111;DHT22;29774;52.664;5.074;2022-12-26T00:46:01;8.70;95.30
44111;DHT22;29774;52.664;5.074;2022-12-26T00:48:27;8.70;95.30
44111;DHT22;29774;52.664;5.074;2022-12-26T00:50:53;8.70;95.30
44111;DHT22;29774;52.664;5.074;2022-12-26T00:53:18;8.70;95.30
44111;DHT22;29774;52.664;5.074;2022-12-26T00:55:44;8.70;95.30
44111;DHT22;29774;52.664;5.074;2022-12-26T00:58:10;8.80;95.30
44111;DHT22;29774;52.664;5.074;2022-12-26T01:00:36;8.80;95.30
44111;DHT22;29774;52.664;5.074;2022-12-26T01:03:01;8.80;95.30
44111;DHT22;29774;52.664;5.074;2022-12-26T01:05:27;8.80;95.20
44111;DHT22;29774;52.664;5.074;2022-12-26T01:07:53;8.80;95.30
44111;DHT22;29774;52.664;5.074;2022-12-26T01:10:19;8.80;95.30
44111;DHT22;29774;52.664;5.074;2022-12-26T01:12:45;8.80;95.30
44111;DHT22;29774;52.664;5.074;2022-12-26T01:15:10;8.80;95.30
44111;DHT22;29774;52.664;5.074;2022-12-26T01:17:36;8.80;95.30
44111;DHT22;29774;52.664;5.074;2022-12-26T01:20:02;8.80;95.30
44111;DHT22;29774;52.664;5.074;2022-12-26T01:22:28;8.80;95.30
44111;DHT22;29774;52.664;5.074;2022-12-26T01:24:57;8.80;95.30
44111;DHT22;29774;52.664;5.074;2022-12-26T01:27:23;8.80;95.30
44111;DHT22;29774;52.664;5.074;2022-12-26T01:29:50;8.80;95.30
44111;DHT22;29774;52.664;5.074;2022-12-26T01:32:17;8.80;95.30
44111;DHT22;29774;52.664;5.074;2022-12-26T01:34:43;8.80;95.30
44111;DHT22;29774;52.664;5.074;2022-12-26T01:37:11;8.80;95.30
44111;DHT22;29774;52.664;5.074;2022-12-26T01:39:37;8.80;95.30
44111;DHT22;29774;52.664;5.074;2022-12-26T01:42:07;8.80;95.30
44111;DHT22;29774;52.664;5.074;2022-12-26T01:44:57;8.80;95.30
44111;DHT22;29774;52.664;5.074;2022-12-26T01:53:23;8.80;95.30
44111;DHT22;29774;52.664;5.074;2022-12-26T01:56:00;8.80;95.30
44111;DHT22;29774;52.664;5.074;2022-12-26T01:58:36;8.80;95.30
44111;DHT22;29774;52.664;5.074;2022-12-26T02:01:04;8.80;95.30
44111;DHT22;29774;52.664;5.074;2022-12-26T02:03:31;8.90;95.30
44111;DHT22;29774;52.664;5.074;2022-12-26T02:06:16;8.80;95.20
44111;DHT22;29774;52.664;5.074;2022-12-26T02:08:43;8.80;95.20
44111;DHT22;29774;52.664;5.074;2022-12-26T02:11:31;8.80;95.20
44111;DHT22;29774;52.664;5.074;2022-12-26T02:13:58;8.80;95.20
44111;DHT22;29774;52.664;5.074;2022-12-26T02:16:24;8.70;95.20
44111;DHT22;29774;52.664;5.074;2022-12-26T02:18:50;8.80;95.20
44111;DHT22;29774;52.664;5.074;2022-12-26T02:39:25;8.70;95.00
44111;DHT22;29774;52.664;5.074;2022-12-26T02:44:45;8.80;95.00
44111;DHT22;29774;52.664;5.074;2022-12-26T02:53:51;8.60;94.90
44111;DHT22;29774;52.664;5.074;2022-12-26T02:56:42;8.60;94.80
44111;DHT22;29774;52.664;5.074;2022-12-26T03:02:40;8.50;94.70
44111;DHT22;29774;52.664;5.074;2022-12-26T03:05:35;8.50;94.60
44111;DHT22;29774;52.664;5.074;2022-12-26T03:08:42;8.50;94.50
44111;DHT22;29774;52.664;5.074;2022-12-26T03:11:33;8.40;94.40
44111;DHT22;29774;52.664;5.074;2022-12-26T03:14:23;8.40;94.30
44111;DHT22;29774;52.664;5.074;2022-12-26T03:16:53;8.40;94.30
44111;DHT22;29774;52.664;5.074;2022-12-26T03:19:40;8.40;94.20
44111;DHT22;29774;52.664;5.074;2022-12-26T03:22:23;8.40;94.10
44111;DHT22;29774;52.664;5.074;2022-12-26T03:24:57;8.30;94.00
44111;DHT22;29774;52.664;5.074;2022-12-26T03:27:42;8.20;93.90
44111;DHT22;29774;52.664;5.074;2022-12-26T03:30:08;8.20;93.80
44111;DHT22;29774;52.664;5.074;2022-12-26T03:32:55;8.20;93.80
44111;DHT22;29774;52.664;5.074;2022-12-26T03:35:22;8.20;93.70
44111;DHT22;29774;52.664;5.074;2022-12-26T03:37:53;8.20;93.60
44111;DHT22;29774;52.664;5.074;2022-12-26T03:40:45;8.30;93.50
44111;DHT22;29774;52.664;5.074;2022-12-26T03:43:52;8.20;93.50
44111;DHT22;29774;52.664;5.074;2022-12-26T03:49:45;8.20;93.50
44111;DHT22;29774;52.664;5.074;2022-12-26T03:52:59;8.20;93.40
44111;DHT22;29774;52.664;5.074;2022-12-26T03:55:56;8.20;93.40
44111;DHT22;29774;52.664;5.074;2022-12-26T03:59:15;8.10;93.40
44111;DHT22;29774;52.664;5.074;2022-12-26T04:02:04;8.20;93.30
44111;DHT22;29774;52.664;5.074;2022-12-26T04:04:51;8.20;93.40
44111;DHT22;29774;52.664;5.074;2022-12-26T04:07:41;8.20;93.40
44111;DHT22;29774;52.664;5.074;2022-12-26T04:10:31;8.20;93.30
44111;DHT22;29774;52.664;5.074;2022-12-26T04:13:19;8.20;93.30
44111;DHT22;29774;52.664;5.074;2022-12-26T04:16:16;8.20;93.30
44111;DHT22;29774;52.664;5.074;2022-12-26T04:25:01;8.20;93.60
44111;DHT22;29774;52.664;5.074;2022-12-26T04:27:49;8.30;93.50
44111;DHT22;29774;52.664;5.074;2022-12-26T04:30:34;8.40;93.60
44111;DHT22;29774;52.664;5.074;2022-12-26T04:33:26;8.40;93.60
44111;DHT22;29774;52.664;5.074;2022-12-26T04:36:28;8.40;93.50
44111;DHT22;29774;52.664;5.074;2022-12-26T04:39:15;8.50;93.50
44111;DHT22;29774;52.664;5.074;2022-12-26T04:42:03;8.40;93.60
44111;DHT22;29774;52.664;5.074;2022-12-26T04:44:47;8.40;93.60
44111;DHT22;29774;52.664;5.074;2022-12-26T04:47:14;8.60;93.60
44111;DHT22;29774;52.664;5.074;2022-12-26T04:49:41;8.60;93.60
44111;DHT22;29774;52.664;5.074;2022-12-26T04:52:26;8.70;93.50
44111;DHT22;29774;52.664;5.074;2022-12-26T04:55:12;8.70;93.40
44111;DHT22;29774;52.664;5.074;2022-12-26T04:57:38;8.80;93.40
44111;DHT22;29774;52.664;5.074;2022-12-26T05:00:04;8.80;93.20
44111;DHT22;29774;52.664;5.074;2022-12-26T05:02:30;8.80;93.20
44111;DHT22;29774;52.664;5.074;2022-12-26T05:05:14;8.80;93.10
44111;DHT22;29774;52.664;5.074;2022-12-26T05:08:29;8.80;93.10
44111;DHT22;29774;52.664;5.074;2022-12-26T05:11:15;8.90;93.00
44111;DHT22;29774;52.664;5.074;2022-12-26T05:13:41;9.00;92.80
44111;DHT22;29774;52.664;5.074;2022-12-26T05:16:06;9.00;92.80
44111;DHT22;29774;52.664;5.074;2022-12-26T05:18:51;9.10;92.60
44111;DHT22;29774;52.664;5.074;2022-12-26T05:21:36;9.10;92.50
44111;DHT22;29774;52.664;5.074;2022-12-26T05:24:20;9.10;92.40
44111;DHT22;29774;52.664;5.074;2022-12-26T05:27:10;9.20;92.40
44111;DHT22;29774;52.664;5.074;2022-12-26T05:29:55;9.10;92.30
44111;DHT22;29774;52.664;5.074;2022-12-26T05:32:21;9.10;92.20
44111;DHT22;29774;52.664;5.074;2022-12-26T05:35:05;9.10;92.10
44111;DHT22;29774;52.664;5.074;2022-12-26T05:37:31;9.00;91.90
44111;DHT22;29774;52.664;5.074;2022-12-26T05:39:56;9.00;91.80
44111;DHT22;29774;52.664;5.074;2022-12-26T05:42:22;9.10;91.70
44111;DHT22;29774;52.664;5.074;2022-12-26T05:44:48;9.00;91.40
44111;DHT22;29774;52.664;5.074;2022-12-26T05:47:13;8.90;91.40
44111;DHT22;29774;52.664;5.074;2022-12-26T05:49:39;8.90;91.50
44111;DHT22;29774;52.664;5.074;2022-12-26T05:52:04;8.90;91.40
44111;DHT22;29774;52.664;5.074;2022-12-26T05:54:30;8.90;91.30
44111;DHT22;29774;52.664;5.074;2022-12-26T05:56:55;8.80;91.30
44111;DHT22;29774;52.664;5.074;2022-12-26T05:59:21;8.80;91.30
44111;DHT22;29774;52.664;5.074;2022-12-26T06:01:46;8.80;91.50
44111;DHT22;29774;52.664;5.074;2022-12-26T06:04:12;9.00;91.50
44111;DHT22;29774;52.664;5.074;2022-12-26T06:06:38;9.00;91.30
44111;DHT22;29774;52.664;5.074;2022-12-26T06:09:03;9.00;91.30
44111;DHT22;29774;52.664;5.074;2022-12-26T06:11:29;9.00;91.30
44111;DHT22;29774;52.664;5.074;2022-12-26T06:13:54;9.20;91.30
44111;DHT22;29774;52.664;5.074;2022-12-26T06:16:20;9.20;91.20
44111;DHT22;29774;52.664;5.074;2022-12-26T06:18:46;9.20;91.10
44111;DHT22;29774;52.664;5.074;2022-12-26T06:21:17;9.20;91.00
44111;DHT22;29774;52.664;5.074;2022-12-26T06:23:43;9.20;90.80
44111;DHT22;29774;52.664;5.074;2022-12-26T06:26:09;9.20;90.80
44111;DHT22;29774;52.664;5.074;2022-12-26T06:28:38;9.30;90.80
44111;DHT22;29774;52.664;5.074;2022-12-26T06:31:06;9.40;90.70
44111;DHT22;29774;52.664;5.074;2022-12-26T06:33:32;9.40;90.50
44111;DHT22;29774;52.664;5.074;2022-12-26T06:36:03;9.40;90.50
44111;DHT22;29774;52.664;5.074;2022-12-26T06:38:29;9.30;90.50
44111;DHT22;29774;52.664;5.074;2022-12-26T06:40:54;9.40;90.50
44111;DHT22;29774;52.664;5.074;2022-12-26T06:43:20;9.30;90.70
44111;DHT22;29774;52.664;5.074;2022-12-26T06:45:54;9.40;90.60
44111;DHT22;29774;52.664;5.074;2022-12-26T06:48:20;9.40;90.40
44111;DHT22;29774;52.664;5.074;2022-12-26T06:50:46;9.40;90.50
44111;DHT22;29774;52.664;5.074;2022-12-26T06:53:11;9.40;90.50
44111;DHT22;29774;52.664;5.074;2022-12-26T06:55:37;9.60;90.20
44111;DHT22;29774;52.664;5.074;2022-12-26T06:58:02;9.50;90.20
44111;DHT22;29774;52.664;5.074;2022-12-26T07:00:28;9.60;90.10
44111;DHT22;29774;52.664;5.074;2022-12-26T07:02:54;9.70;89.60
44111;DHT22;29774;52.664;5.074;2022-12-26T07:05:20;9.70;89.30
44111;DHT22;29774;52.664;5.074;2022-12-26T07:07:52;9.70;89.30
44111;DHT22;29774;52.664;5.074;2022-12-26T07:10:19;9.70;89.20
44111;DHT22;29774;52.664;5.074;2022-12-26T07:12:45;9.70;89.10
44111;DHT22;29774;52.664;5.074;2022-12-26T07:15:11;9.70;89.30
44111;DHT22;29774;52.664;5.074;2022-12-26T07:17:36;9.70;89.30
44111;DHT22;29774;52.664;5.074;2022-12-26T07:20:03;9.70;89.20
44111;DHT22;29774;52.664;5.074;2022-12-26T07:22:31;9.50;89.60
44111;DHT22;29774;52.664;5.074;2022-12-26T07:24:57;9.50;89.90
44111;DHT22;29774;52.664;5.074;2022-12-26T07:27:23;9.50;89.90
44111;DHT22;29774;52.664;5.074;2022-12-26T07:29:48;9.50;90.00
44111;DHT22;29774;52.664;5.074;2022-12-26T07:32:14;9.60;89.70
44111;DHT22;29774;52.664;5.074;2022-12-26T07:34:40;9.70;89.30
44111;DHT22;29774;52.664;5.074;2022-12-26T07:37:07;9.70;89.30
44111;DHT22;29774;52.664;5.074;2022-12-26T07:39:32;9.60;89.40
44111;DHT22;29774;52.664;5.074;2022-12-26T07:41:58;9.60;89.70
44111;DHT22;29774;52.664;5.074;2022-12-26T07:44:28;9.70;89.70
44111;DHT22;29774;52.664;5.074;2022-12-26T07:46:55;9.70;89.70
44111;DHT22;29774;52.664;5.074;2022-12-26T07:49:21;9.70;89.60
44111;DHT22;29774;52.664;5.074;2022-12-26T07:51:47;9.80;89.50
44111;DHT22;29774;52.664;5.074;2022-12-26T07:54:13;9.80;89.40
44111;DHT22;29774;52.664;5.074;2022-12-26T07:56:39;10.00;89.20
44111;DHT22;29774;52.664;5.074;2022-12-26T07:59:05;9.90;89.50
44111;DHT22;29774;52.664;5.074;2022-12-26T08:01:30;9.90;89.90
44111;DHT22;29774;52.664;5.074;2022-12-26T08:03:56;9.70;90.20
44111;DHT22;29774;52.664;5.074;2022-12-26T08:06:21;9.70;90.60
44111;DHT22;29774;52.664;5.074;2022-12-26T08:08:47;9.60;90.90
44111;DHT22;29774;52.664;5.074;2022-12-26T08:11:15;9.60;91.20
44111;DHT22;29774;52.664;5.074;2022-12-26T08:13:42;9.70;91.00
44111;DHT22;29774;52.664;5.074;2022-12-26T08:16:09;9.70;90.80
44111;DHT22;29774;52.664;5.074;2022-12-26T08:18:35;9.70;90.80
44111;DHT22;29774;52.664;5.074;2022-12-26T08:21:01;9.80;90.40
44111;DHT22;29774;52.664;5.074;2022-12-26T08:23:27;9.90;90.10
44111;DHT22;29774;52.664;5.074;2022-12-26T08:25:52;9.80;90.00
44111;DHT22;29774;52.664;5.074;2022-12-26T08:28:18;9.80;90.10
44111;DHT22;29774;52.664;5.074;2022-12-26T08:30:43;9.80;90.30
44111;DHT22;29774;52.664;5.074;2022-12-26T08:33:11;9.70;90.40
44111;DHT22;29774;52.664;5.074;2022-12-26T08:35:38;9.70;90.50
44111;DHT22;29774;52.664;5.074;2022-12-26T08:38:04;9.70;90.80
44111;DHT22;29774;52.664;5.074;2022-12-26T08:40:30;9.70;90.70
44111;DHT22;29774;52.664;5.074;2022-12-26T08:42:55;10.10;89.50
44111;DHT22;29774;52.664;5.074;2022-12-26T08:45:21;10.20;87.90
44111;DHT22;29774;52.664;5.074;2022-12-26T08:47:48;10.30;87.00
44111;DHT22;29774;52.664;5.074;2022-12-26T08:50:13;10.40;86.60
44111;DHT22;29774;52.664;5.074;2022-12-26T08:52:40;10.30;86.10
44111;DHT22;29774;52.664;5.074;2022-12-26T08:55:06;10.30;86.20
44111;DHT22;29774;52.664;5.074;2022-12-26T08:57:32;10.50;85.80
44111;DHT22;29774;52.664;5.074;2022-12-26T08:59:57;10.50;84.90
44111;DHT22;29774;52.664;5.074;2022-12-26T09:02:23;10.40;84.70
44111;DHT22;29774;52.664;5.074;2022-12-26T09:04:50;10.30;84.90
44111;DHT22;29774;52.664;5.074;2022-12-26T09:07:16;10.00;83.10
44111;DHT22;29774;52.664;5.074;2022-12-26T09:09:41;10.10;85.10
44111;DHT22;29774;52.664;5.074;2022-12-26T09:12:08;10.00;83.90
44111;DHT22;29774;52.664;5.074;2022-12-26T09:14:34;10.20;85.20
44111;DHT22;29774;52.664;5.074;2022-12-26T09:17:00;10.00;84.00
44111;DHT22;29774;52.664;5.074;2022-12-26T09:19:25;9.90;83.40
44111;DHT22;29774;52.664;5.074;2022-12-26T09:21:54;9.90;84.00
44111;DHT22;29774;52.664;5.074;2022-12-26T09:24:40;9.80;83.50
44111;DHT22;29774;52.664;5.074;2022-12-26T09:27:06;9.70;83.90
44111;DHT22;29774;52.664;5.074;2022-12-26T09:29:32;9.50;83.50
44111;DHT22;29774;52.664;5.074;2022-12-26T09:31:58;9.70;84.90
44111;DHT22;29774;52.664;5.074;2022-12-26T09:34:23;9.70;84.80
44111;DHT22;29774;52.664;5.074;2022-12-26T09:36:49;9.90;85.50
44111;DHT22;29774;52.664;5.074;2022-12-26T09:39:15;9.90;84.80
44111;DHT22;29774;52.664;5.074;2022-12-26T09:49:12;10.00;84.10
44111;DHT22;29774;52.664;5.074;2022-12-26T09:51:42;9.70;83.30
44111;DHT22;29774;52.664;5.074;2022-12-26T09:54:15;9.60;83.70
44111;DHT22;29774;52.664;5.074;2022-12-26T09:56:42;9.60;83.70
44111;DHT22;29774;52.664;5.074;2022-12-26T09:59:16;9.70;84.10
44111;DHT22;29774;52.664;5.074;2022-12-26T10:01:43;9.70;83.90
44111;DHT22;29774;52.664;5.074;2022-12-26T10:04:24;9.80;84.20
44111;DHT22;29774;52.664;5.074;2022-12-26T10:07:21;9.70;83.70
44111;DHT22;29774;52.664;5.074;2022-12-26T10:10:03;9.80;83.70
44111;DHT22;29774;52.664;5.074;2022-12-26T10:15:26;9.90;84.00
44111;DHT22;29774;52.664;5.074;2022-12-26T10:23:36;9.90;83.80
44111;DHT22;29774;52.664;5.074;2022-12-26T10:26:16;9.80;84.50
44111;DHT22;29774;52.664;5.074;2022-12-26T10:29:17;10.00;85.10
44111;DHT22;29774;52.664;5.074;2022-12-26T10:31:57;9.50;84.80
44111;DHT22;29774;52.664;5.074;2022-12-26T10:34:31;9.40;85.80
44111;DHT22;29774;52.664;5.074;2022-12-26T10:37:38;9.70;85.80
44111;DHT22;29774;52.664;5.074;2022-12-26T10:42:37;9.50;85.00
44111;DHT22;29774;52.664;5.074;2022-12-26T10:45:38;9.60;85.10
44111;DHT22;29774;52.664;5.074;2022-12-26T10:48:09;9.50;84.40
44111;DHT22;29774;52.664;5.074;2022-12-26T10:50:38;9.80;85.50
44111;DHT22;29774;52.664;5.074;2022-12-26T10:53:06;9.70;85.00
44111;DHT22;29774;52.664;5.074;2022-12-26T10:55:33;9.70;85.00
44111;DHT22;29774;52.664;5.074;2022-12-26T10:58:04;9.70;85.70
44111;DHT22;29774;52.664;5.074;2022-12-26T11:00:31;9.80;85.90
44111;DHT22;29774;52.664;5.074;2022-12-26T11:03:03;10.10;85.30
44111;DHT22;29774;52.664;5.074;2022-12-26T11:05:28;10.10;85.20
44111;DHT22;29774;52.664;5.074;2022-12-26T11:07:56;10.00;84.70
44111;DHT22;29774;52.664;5.074;2022-12-26T11:10:30;10.00;84.60
44111;DHT22;29774;52.664;5.074;2022-12-26T11:12:59;10.00;84.90
44111;DHT22;29774;52.664;5.074;2022-12-26T11:15:38;10.00;84.60
44111;DHT22;29774;52.664;5.074;2022-12-26T11:23:45;10.20;83.10
44111;DHT22;29774;52.664;5.074;2022-12-26T11:26:31;10.10;81.70
44111;DHT22;29774;52.664;5.074;2022-12-26T11:29:12;10.20;83.20
44111;DHT22;29774;52.664;5.074;2022-12-26T11:31:41;10.30;83.20
44111;DHT22;29774;52.664;5.074;2022-12-26T11:34:10;10.40;83.20
44111;DHT22;29774;52.664;5.074;2022-12-26T11:36:44;10.30;81.90
44111;DHT22;29774;52.664;5.074;2022-12-26T11:39:25;10.00;80.00
44111;DHT22;29774;52.664;5.074;2022-12-26T11:41:51;10.20;82.30
44111;DHT22;29774;52.664;5.074;2022-12-26T11:49:27;10.00;81.60
44111;DHT22;29774;52.664;5.074;2022-12-26T11:51:55;9.80;80.90
44111;DHT22;29774;52.664;5.074;2022-12-26T11:54:26;9.80;82.30
44111;DHT22;29774;52.664;5.074;2022-12-26T11:59:36;9.70;80.60
44111;DHT22;29774;52.664;5.074;2022-12-26T12:02:28;9.70;80.60
44111;DHT22;29774;52.664;5.074;2022-12-26T12:04:59;9.70;82.10
44111;DHT22;29774;52.664;5.074;2022-12-26T12:07:31;9.70;81.60
44111;DHT22;29774;52.664;5.074;2022-12-26T12:12:51;9.40;80.70
44111;DHT22;29774;52.664;5.074;2022-12-26T12:15:27;9.30;80.80
44111;DHT22;29774;52.664;5.074;2022-12-26T12:18:49;9.30;81.60
44111;DHT22;29774;52.664;5.074;2022-12-26T12:21:18;9.30;80.20
44111;DHT22;29774;52.664;5.074;2022-12-26T12:29:06;9.60;80.70
44111;DHT22;29774;52.664;5.074;2022-12-26T12:34:29;9.30;76.80
44111;DHT22;29774;52.664;5.074;2022-12-26T12:37:03;9.30;78.70
44111;DHT22;29774;52.664;5.074;2022-12-26T12:42:21;9.40;77.00
44111;DHT22;29774;52.664;5.074;2022-12-26T12:50:43;9.30;76.10
44111;DHT22;29774;52.664;5.074;2022-12-26T12:56:26;9.70;78.40
44111;DHT22;29774;52.664;5.074;2022-12-26T13:01:52;9.80;78.70
44111;DHT22;29774;52.664;5.074;2022-12-26T13:04:28;9.70;77.30
44111;DHT22;29774;52.664;5.074;2022-12-26T13:06:58;9.70;78.10
44111;DHT22;29774;52.664;5.074;2022-12-26T13:09:43;9.70;77.10
44111;DHT22;29774;52.664;5.074;2022-12-26T13:12:28;9.70;77.40
44111;DHT22;29774;52.664;5.074;2022-12-26T13:15:41;9.30;75.00
44111;DHT22;29774;52.664;5.074;2022-12-26T13:18:17;9.20;75.20
44111;DHT22;29774;52.664;5.074;2022-12-26T13:21:03;9.20;76.70
44111;DHT22;29774;52.664;5.074;2022-12-26T13:26:27;8.60;74.70
44111;DHT22;29774;52.664;5.074;2022-12-26T13:29:15;8.70;76.50
44111;DHT22;29774;52.664;5.074;2022-12-26T13:31:41;9.00;75.00
44111;DHT22;29774;52.664;5.074;2022-12-26T13:34:10;9.00;77.40
44111;DHT22;29774;52.664;5.074;2022-12-26T13:36:50;8.90;74.60
44111;DHT22;29774;52.664;5.074;2022-12-26T13:44:38;8.80;72.90
44111;DHT22;29774;52.664;5.074;2022-12-26T13:47:04;8.70;74.60
44111;DHT22;29774;52.664;5.074;2022-12-26T13:49:38;8.80;75.60
44111;DHT22;29774;52.664;5.074;2022-12-26T14:02:23;7.70;73.10
44111;DHT22;29774;52.664;5.074;2022-12-26T14:05:15;7.50;73.30
44111;DHT22;29774;52.664;5.074;2022-12-26T14:08:04;7.30;73.90
44111;DHT22;29774;52.664;5.074;2022-12-26T14:16:03;6.80;74.90
44111;DHT22;29774;52.664;5.074;2022-12-26T14:27:31;6.60;76.90
44111;DHT22;29774;52.664;5.074;2022-12-26T14:30:19;6.70;77.20
44111;DHT22;29774;52.664;5.074;2022-12-26T14:35:56;6.70;77.40
44111;DHT22;29774;52.664;5.074;2022-12-26T14:41:09;6.60;77.40
44111;DHT22;29774;52.664;5.074;2022-12-26T14:45:03;6.60;77.20
44111;DHT22;29774;52.664;5.074;2022-12-26T14:47:04;6.70;76.80
44111;DHT22;29774;52.664;5.074;2022-12-26T14:54:53;6.80;77.10
44111;DHT22;29774;52.664;5.074;2022-12-26T14:57:55;6.80;77.00
44111;DHT22;29774;52.664;5.074;2022-12-26T15:15:07;6.40;78.60
44111;DHT22;29774;52.664;5.074;2022-12-26T15:18:16;6.20;79.00
44111;DHT22;29774;52.664;5.074;2022-12-26T15:59:02;5.40;81.40
44111;DHT22;29774;52.664;5.074;2022-12-26T16:01:44;5.30;81.70
44111;DHT22;29774;52.664;5.074;2022-12-26T16:04:33;5.20;82.00
44111;DHT22;29774;52.664;5.074;2022-12-26T16:09:51;4.90;82.70
44111;DHT22;29774;52.664;5.074;2022-12-26T16:12:27;4.80;83.20
44111;DHT22;29774;52.664;5.074;2022-12-26T16:17:35;4.60;83.30
44111;DHT22;29774;52.664;5.074;2022-12-26T16:20:16;4.60;83.90
44111;DHT22;29774;52.664;5.074;2022-12-26T16:22:43;4.60;83.90
44111;DHT22;29774;52.664;5.074;2022-12-26T16:25:27;4.60;84.00
44111;DHT22;29774;52.664;5.074;2022-12-26T16:27:55;4.50;84.00
44111;DHT22;29774;52.664;5.074;2022-12-26T16:30:24;4.60;84.50
44111;DHT22;29774;52.664;5.074;2022-12-26T16:32:51;4.50;84.40
44111;DHT22;29774;52.664;5.074;2022-12-26T16:35:21;4.40;84.50
44111;DHT22;29774;52.664;5.074;2022-12-26T16:37:48;4.30;84.50
44111;DHT22;29774;52.664;5.074;2022-12-26T16:40:18;4.20;84.70
44111;DHT22;29774;52.664;5.074;2022-12-26T16:43:00;4.10;84.70
44111;DHT22;29774;52.664;5.074;2022-12-26T16:45:30;4.20;85.00
44111;DHT22;29774;52.664;5.074;2022-12-26T16:47:57;4.10;85.00
44111;DHT22;29774;52.664;5.074;2022-12-26T16:50:25;4.10;85.10
44111;DHT22;29774;52.664;5.074;2022-12-26T16:53:08;4.10;85.10
44111;DHT22;29774;52.664;5.074;2022-12-26T16:55:37;4.00;85.10
44111;DHT22;29774;52.664;5.074;2022-12-26T16:58:27;4.00;85.10
44111;DHT22;29774;52.664;5.074;2022-12-26T17:01:04;3.90;85.10
44111;DHT22;29774;52.664;5.074;2022-12-26T17:03:58;3.90;85.20
44111;DHT22;29774;52.664;5.074;2022-12-26T17:06:33;3.80;85.30
44111;DHT22;29774;52.664;5.074;2022-12-26T17:09:08;3.70;85.40
44111;DHT22;29774;52.664;5.074;2022-12-26T17:11:38;3.80;85.50
44111;DHT22;29774;52.664;5.074;2022-12-26T17:14:06;3.70;85.30
44111;DHT22;29774;52.664;5.074;2022-12-26T17:16:40;3.70;85.30
44111;DHT22;29774;52.664;5.074;2022-12-26T17:19:20;3.70;85.30
44111;DHT22;29774;52.664;5.074;2022-12-26T17:24:40;3.50;85.20
44111;DHT22;29774;52.664;5.074;2022-12-26T17:27:20;3.50;85.30
44111;DHT22;29774;52.664;5.074;2022-12-26T17:29:57;3.50;85.30
44111;DHT22;29774;52.664;5.074;2022-12-26T17:34:49;3.30;85.40
44111;DHT22;29774;52.664;5.074;2022-12-26T17:37:26;3.20;85.70
44111;DHT22;29774;52.664;5.074;2022-12-26T17:40:36;3.20;86.10
44111;DHT22;29774;52.664;5.074;2022-12-26T17:45:39;3.20;86.00
44111;DHT22;29774;52.664;5.074;2022-12-26T17:48:06;3.20;86.00
44111;DHT22;29774;52.664;5.074;2022-12-26T17:50:35;3.40;86.10
44111;DHT22;29774;52.664;5.074;2022-12-26T17:53:22;3.60;85.90
44111;DHT22;29774;52.664;5.074;2022-12-26T17:55:49;3.70;85.60
44111;DHT22;29774;52.664;5.074;2022-12-26T17:58:15;3.70;85.40
44111;DHT22;29774;52.664;5.074;2022-12-26T18:00:42;3.70;84.90
44111;DHT22;29774;52.664;5.074;2022-12-26T18:03:08;3.70;84.30
44111;DHT22;29774;52.664;5.074;2022-12-26T18:05:34;3.70;84.10
44111;DHT22;29774;52.664;5.074;2022-12-26T18:08:01;3.70;83.90
44111;DHT22;29774;52.664;5.074;2022-12-26T18:10:29;3.70;83.60
44111;DHT22;29774;52.664;5.074;2022-12-26T18:12:56;3.70;83.40
44111;DHT22;29774;52.664;5.074;2022-12-26T18:15:23;3.70;83.10
44111;DHT22;29774;52.664;5.074;2022-12-26T18:17:50;3.70;82.90
44111;DHT22;29774;52.664;5.074;2022-12-26T18:20:22;3.70;83.00
44111;DHT22;29774;52.664;5.074;2022-12-26T18:22:48;3.80;83.10
44111;DHT22;29774;52.664;5.074;2022-12-26T18:25:15;3.90;83.00
44111;DHT22;29774;52.664;5.074;2022-12-26T18:27:41;4.00;82.90
44111;DHT22;29774;52.664;5.074;2022-12-26T18:30:17;4.00;82.60
44111;DHT22;29774;52.664;5.074;2022-12-26T18:32:43;4.10;82.80
44111;DHT22;29774;52.664;5.074;2022-12-26T18:35:11;4.20;82.40
44111;DHT22;29774;52.664;5.074;2022-12-26T18:37:36;4.20;82.00
44111;DHT22;29774;52.664;5.074;2022-12-26T18:40:03;4.20;81.90
44111;DHT22;29774;52.664;5.074;2022-12-26T18:42:29;4.20;81.60
44111;DHT22;29774;52.664;5.074;2022-12-26T18:44:55;4.30;81.50
44111;DHT22;29774;52.664;5.074;2022-12-26T18:47:21;4.20;81.30
44111;DHT22;29774;52.664;5.074;2022-12-26T18:49:47;4.10;81.40
44111;DHT22;29774;52.664;5.074;2022-12-26T18:52:13;4.20;81.80
44111;DHT22;29774;52.664;5.074;2022-12-26T18:54:39;4.20;81.50
44111;DHT22;29774;52.664;5.074;2022-12-26T18:57:06;4.10;81.40
44111;DHT22;29774;52.664;5.074;2022-12-26T18:59:35;4.10;81.50
44111;DHT22;29774;52.664;5.074;2022-12-26T19:02:01;4.10;81.90
44111;DHT22;29774;52.664;5.074;2022-12-26T19:04:26;4.10;81.80
44111;DHT22;29774;52.664;5.074;2022-12-26T19:06:52;4.20;81.90
44111;DHT22;29774;52.664;5.074;2022-12-26T19:09:18;4.40;82.20
44111;DHT22;29774;52.664;5.074;2022-12-26T19:11:44;4.40;82.10
44111;DHT22;29774;52.664;5.074;2022-12-26T19:14:18;4.40;81.80
44111;DHT22;29774;52.664;5.074;2022-12-26T19:16:44;4.30;81.70
44111;DHT22;29774;52.664;5.074;2022-12-26T19:19:10;4.40;82.00
44111;DHT22;29774;52.664;5.074;2022-12-26T19:21:36;4.40;82.10
44111;DHT22;29774;52.664;5.074;2022-12-26T19:24:01;4.50;82.10
44111;DHT22;29774;52.664;5.074;2022-12-26T19:26:27;4.70;81.80
44111;DHT22;29774;52.664;5.074;2022-12-26T19:28:53;4.70;81.60
44111;DHT22;29774;52.664;5.074;2022-12-26T19:31:20;4.70;81.60
44111;DHT22;29774;52.664;5.074;2022-12-26T19:33:46;5.00;81.50
44111;DHT22;29774;52.664;5.074;2022-12-26T19:36:12;5.10;81.00
44111;DHT22;29774;52.664;5.074;2022-12-26T19:38:38;5.00;80.30
44111;DHT22;29774;52.664;5.074;2022-12-26T19:41:07;5.00;80.40
44111;DHT22;29774;52.664;5.074;2022-12-26T19:43:33;5.10;80.30
44111;DHT22;29774;52.664;5.074;2022-12-26T19:46:04;5.00;80.10
44111;DHT22;29774;52.664;5.074;2022-12-26T19:48:32;5.10;80.40
44111;DHT22;29774;52.664;5.074;2022-12-26T19:51:02;5.10;80.40
44111;DHT22;29774;52.664;5.074;2022-12-26T19:53:29;5.20;80.60